Time;durP1;ratioP1;P1;durP2;ratioP2;P2;SDS_P1;SDS_P2;PMS_P1;PMS_P2;Temp;Humidity;BMP_temperature;BMP_pressure;BME280_temperature;BME280_humidity;BME280_pressure;Samples;Min_cycle;Max_cycle;Signal;HPM_P1;HPM_P2
2020/12/11 00:02:19;;;;;;;;;;;;;;;;;;5034173;28;1417;-82
2020/12/11 00:04:44;;;;;;;;;;;;;;;;;;5034300;28;936;-82
2020/12/11 00:07:09;;;;;;;;;;;;;;;;;;5049863;28;1266;-82
2020/12/11 00:09:35;;;;;;;;;;;;;;;;;;5032794;28;1910;-82
2020/12/11 00:12:01;;;;;;;;;;;;;;;;;;5032834;28;1472;-82
2020/12/11 00:14:26;;;;;;;;;;;;;;;;;;5034587;28;877;-82
2020/12/11 00:16:52;;;;;;;;;;;;;;;;;;5032745;28;2216;-82
2020/12/11 00:19:17;;;;;;;;;;;;;;;;;;5033071;28;1150;-82
2020/12/11 00:21:43;;;;;;;;;;;;;;;;;;5049136;28;1274;-82
2020/12/11 00:24:08;;;;;;;;;;;;;;;;;;5033134;28;1177;-82
2020/12/11 00:26:34;;;;;;;;;;;;;;;;;;5049366;28;1181;-82
2020/12/11 00:28:59;;;;;;;;;;;;;;;;;;5049341;28;1351;-82
2020/12/11 00:31:25;;;;;;;;;;;;;;;;;;5033934;28;1886;-83
2020/12/11 00:33:50;;;;;;;;;;;;;;;;;;5034040;28;845;-82
2020/12/11 00:36:16;;;;;;;;;;;;;;;;;;5033917;28;885;-82
2020/12/11 00:38:41;;;;;;;;;;;;;;;;;;5032854;28;1264;-82
2020/12/11 00:41:06;;;;;;;;;;;;;;;;;;5033732;28;1274;-82
2020/12/11 00:43:31;;;;;;;;;;;;;;;;;;5033288;28;1297;-82
2020/12/11 00:45:57;;;;;;;;;;;;;;;;;;5036556;28;881;-83
2020/12/11 00:48:22;;;;;;;;;;;;;;;;;;5036582;28;2000;-82
2020/12/11 00:50:47;;;;;;;;;;;;;;;;;;5036243;28;1894;-83
2020/12/11 00:53:13;;;;;;;;;;;;;;;;;;5037844;28;1318;-82
2020/12/11 00:55:39;;;;;;;;;;;;;;;;;;5037653;28;869;-82
2020/12/11 00:58:04;;;;;;;;;;;;;;;;;;5036792;28;934;-82
2020/12/11 01:00:29;;;;;;;;;;;;;;;;;;5037428;28;739;-82
2020/12/11 01:02:54;;;;;;;;;;;;;;;;;;5037957;28;1271;-82
2020/12/11 01:05:20;;;;;;;;;;;;;;;;;;5052820;28;1198;-82
2020/12/11 01:07:45;;;;;;;;;;;;;;;;;;5037558;28;821;-82
2020/12/11 01:10:10;;;;;;;;;;;;;;;;;;5037189;28;1890;-82
2020/12/11 01:12:35;;;;;;;;;;;;;;;;;;5037528;28;1322;-82
2020/12/11 01:15:01;;;;;;;;;;;;;;;;;;5037527;28;900;-82
2020/12/11 01:17:26;;;;;;;;;;;;;;;;;;5036133;28;1898;-83
2020/12/11 01:19:51;;;;;;;;;;;;;;;;;;5052465;28;1363;-82
2020/12/11 01:22:16;;;;;;;;;;;;;;;;;;5052630;28;1337;-82
2020/12/11 01:24:42;;;;;;;;;;;;;;;;;;5052335;28;1400;-82
2020/12/11 01:27:07;;;;;;;;;;;;;;;;;;5036188;28;1200;-82
2020/12/11 01:29:32;;;;;;;;;;;;;;;;;;5037363;28;1882;-82
2020/12/11 01:31:58;;;;;;;;;;;;;;;;;;5037433;28;1298;-82
2020/12/11 01:34:23;;;;;;;;;;;;;;;;;;5036373;28;1357;-82
2020/12/11 01:36:48;;;;;;;;;;;;;;;;;;5036310;28;1332;-82
2020/12/11 01:39:14;;;;;;;;;;;;;;;;;;5036508;28;1241;-82
2020/12/11 01:41:39;;;;;;;;;;;;;;;;;;5036033;28;1437;-82
2020/12/11 01:44:08;;;;;;;;;;;;;;;;;;5037400;28;846;-82
2020/12/11 01:46:38;;;;;;;;;;;;;;;;;;5036054;28;1196;-83
2020/12/11 01:49:04;;;;;;;;;;;;;;;;;;5037675;28;869;-82
2020/12/11 01:51:29;;;;;;;;;;;;;;;;;;5037369;28;1965;-83
2020/12/11 01:53:55;;;;;;;;;;;;;;;;;;5037728;28;869;-83
2020/12/11 01:56:23;;;;;;;;;;;;;;;;;;5035261;28;1181;-82
2020/12/11 01:58:52;;;;;;;;;;;;;;;;;;5036278;28;1266;-82
2020/12/11 02:01:17;;;;;;;;;;;;;;;;;;5036886;28;1310;-82
2020/12/11 02:03:43;;;;;;;;;;;;;;;;;;5035948;28;1513;-82
2020/12/11 02:06:09;;;;;;;;;;;;;;;;;;5036075;28;1368;-82
2020/12/11 02:08:34;;;;;;;;;;;;;;;;;;5036027;28;1223;-82
2020/12/11 02:10:59;;;;;;;;;;;;;;;;;;5037108;28;1894;-82
2020/12/11 02:13:25;;;;;;;;;;;;;;;;;;5037185;28;1325;-82
2020/12/11 02:15:50;;;;;;;;;;;;;;;;;;5035955;28;1246;-83
2020/12/11 02:18:15;;;;;;;;;;;;;;;;;;5037231;28;878;-83
2020/12/11 02:20:40;;;;;;;;;;;;;;;;;;5053094;28;853;-82
2020/12/11 02:23:06;;;;;;;;;;;;;;;;;;5036794;28;1405;-82
2020/12/11 02:25:31;;;;;;;;;;;;;;;;;;5036752;28;948;-82
2020/12/11 02:27:56;;;;;;;;;;;;;;;;;;5051939;28;1295;-82
2020/12/11 02:30:21;;;;;;;;;;;;;;;;;;5036121;28;1992;-82
2020/12/11 02:32:46;;;;;;;;;;;;;;;;;;5035228;28;1373;-82
2020/12/11 02:35:12;;;;;;;;;;;;;;;;;;5052171;28;1074;-82
2020/12/11 02:37:37;;;;;;;;;;;;;;;;;;5052559;28;802;-82
2020/12/11 02:40:04;;;;;;;;;;;;;;;;;;5051625;28;1420;-82
2020/12/11 02:42:29;;;;;;;;;;;;;;;;;;5035552;28;1361;-82
2020/12/11 02:44:54;;;;;;;;;;;;;;;;;;5052034;28;1186;-82
2020/12/11 02:47:19;;;;;;;;;;;;;;;;;;5034989;28;1339;-82
2020/12/11 02:49:45;;;;;;;;;;;;;;;;;;5034829;28;1960;-82
2020/12/11 02:52:10;;;;;;;;;;;;;;;;;;5034879;28;1365;-82
2020/12/11 02:54:35;;;;;;;;;;;;;;;;;;5051551;28;1386;-82
2020/12/11 02:57:01;;;;;;;;;;;;;;;;;;5036325;28;853;-82
2020/12/11 02:59:26;;;;;;;;;;;;;;;;;;5035897;28;860;-82
2020/12/11 03:01:51;;;;;;;;;;;;;;;;;;5035918;28;1302;-82
2020/12/11 03:04:16;;;;;;;;;;;;;;;;;;5035012;28;1263;-82
2020/12/11 03:06:42;;;;;;;;;;;;;;;;;;5035997;28;952;-82
2020/12/11 03:09:07;;;;;;;;;;;;;;;;;;5034486;28;1287;-82
2020/12/11 03:11:32;;;;;;;;;;;;;;;;;;5035440;28;1902;-82
2020/12/11 03:13:58;;;;;;;;;;;;;;;;;;5036275;28;1214;-82
2020/12/11 03:16:23;;;;;;;;;;;;;;;;;;5034529;28;1343;-82
2020/12/11 03:18:48;;;;;;;;;;;;;;;;;;5034624;28;1491;-82
2020/12/11 03:21:14;;;;;;;;;;;;;;;;;;5034166;28;1449;-82
2020/12/11 03:23:39;;;;;;;;;;;;;;;;;;5034621;28;1137;-82
2020/12/11 03:26:05;;;;;;;;;;;;;;;;;;5051112;28;1464;-82
2020/12/11 03:28:31;;;;;;;;;;;;;;;;;;5035524;28;869;-82
2020/12/11 03:30:56;;;;;;;;;;;;;;;;;;5035341;28;1974;-82
2020/12/11 03:33:21;;;;;;;;;;;;;;;;;;5034176;28;1404;-82
2020/12/11 03:35:47;;;;;;;;;;;;;;;;;;5034094;28;1228;-82
2020/12/11 03:38:12;;;;;;;;;;;;;;;;;;5034255;28;1304;-82
2020/12/11 03:40:37;;;;;;;;;;;;;;;;;;5034726;28;1371;-82
2020/12/11 03:43:02;;;;;;;;;;;;;;;;;;5035129;28;1278;-82
2020/12/11 03:45:27;;;;;;;;;;;;;;;;;;5051412;28;1361;-82
2020/12/11 03:47:53;;;;;;;;;;;;;;;;;;5035802;28;900;-82
2020/12/11 03:50:18;;;;;;;;;;;;;;;;;;5035128;28;1894;-82
2020/12/11 03:52:43;;;;;;;;;;;;;;;;;;5034188;28;2209;-82
2020/12/11 03:55:08;;;;;;;;;;;;;;;;;;5035292;28;880;-82
2020/12/11 03:57:34;;;;;;;;;;;;;;;;;;5034093;28;1099;-82
2020/12/11 03:59:59;;;;;;;;;;;;;;;;;;5035123;28;904;-81
2020/12/11 04:02:24;;;;;;;;;;;;;;;;;;5034986;28;1318;-82
2020/12/11 04:04:49;;;;;;;;;;;;;;;;;;5033803;28;1366;-82
2020/12/11 04:07:15;;;;;;;;;;;;;;;;;;5034883;28;838;-82
2020/12/11 04:09:40;;;;;;;;;;;;;;;;;;5033343;28;1892;-82
2020/12/11 04:12:05;;;;;;;;;;;;;;;;;;5033503;28;1444;-82
2020/12/11 04:14:31;;;;;;;;;;;;;;;;;;5033592;28;1291;-82
2020/12/11 04:16:56;;;;;;;;;;;;;;;;;;5033494;28;1486;-82
2020/12/11 04:19:21;;;;;;;;;;;;;;;;;;5034468;28;782;-82
2020/12/11 04:21:50;;;;;;;;;;;;;;;;;;5033274;28;1369;-81
2020/12/11 04:24:16;;;;;;;;;;;;;;;;;;5034946;28;818;-81
2020/12/11 04:26:41;;;;;;;;;;;;;;;;;;5034537;28;925;-82
2020/12/11 04:29:06;;;;;;;;;;;;;;;;;;5033438;28;1122;-81
2020/12/11 04:31:32;;;;;;;;;;;;;;;;;;5034346;28;1894;-82
2020/12/11 04:33:57;;;;;;;;;;;;;;;;;;5034567;28;901;-82
2020/12/11 04:36:22;;;;;;;;;;;;;;;;;;5034559;28;833;-82
2020/12/11 04:38:47;;;;;;;;;;;;;;;;;;5034582;28;999;-82
2020/12/11 04:41:13;;;;;;;;;;;;;;;;;;5034418;28;1282;-82
2020/12/11 04:43:39;;;;;;;;;;;;;;;;;;5034448;28;857;-82
2020/12/11 04:46:05;;;;;;;;;;;;;;;;;;5033183;28;1322;-82
2020/12/11 04:48:32;;;;;;;;;;;;;;;;;;5034538;28;1015;-81
2020/12/11 04:50:58;;;;;;;;;;;;;;;;;;5034111;28;1956;-81
2020/12/11 04:53:24;;;;;;;;;;;;;;;;;;5034872;28;1440;-82
2020/12/11 04:55:54;;;;;;;;;;;;;;;;;;5033110;28;1506;-80
2020/12/11 04:58:21;;;;;;;;;;;;;;;;;;5034306;28;928;-81
2020/12/11 05:00:46;;;;;;;;;;;;;;;;;;5033221;28;992;-81
2020/12/11 05:03:15;;;;;;;;;;;;;;;;;;5034197;28;1314;-81
2020/12/11 05:05:40;;;;;;;;;;;;;;;;;;5033168;28;1239;-81
2020/12/11 05:08:19;;;;;;;;;;;;;;;;;;5034422;28;826;-81
2020/12/11 05:10:45;;;;;;;;;;;;;;;;;;5034177;28;1977;-82
2020/12/11 05:13:20;;;;;;;;;;;;;;;;;;5033228;28;1365;-82
2020/12/11 05:16:05;;;;;;;;;;;;;;;;;;5034288;28;830;-82
2020/12/11 05:18:30;;;;;;;;;;;;;;;;;;5033019;28;1051;-82
2020/12/11 05:21:12;;;;;;;;;;;;;;;;;;5033963;28;960;-82
2020/12/11 05:23:52;;;;;;;;;;;;;;;;;;5034160;28;869;-82
2020/12/11 05:26:21;;;;;;;;;;;;;;;;;;5034053;28;908;-82
2020/12/11 05:28:46;;;;;;;;;;;;;;;;;;5032771;28;865;-82
2020/12/11 05:31:13;;;;;;;;;;;;;;;;;;5050524;28;1898;-82
2020/12/11 05:33:38;;;;;;;;;;;;;;;;;;5037622;28;826;-82
2020/12/11 05:36:03;;;;;;;;;;;;;;;;;;5037077;28;1224;-83
2020/12/11 05:38:29;;;;;;;;;;;;;;;;;;5052896;28;1394;-82
2020/12/11 05:40:54;;;;;;;;;;;;;;;;;;5052913;28;1159;-82
2020/12/11 05:43:20;;;;;;;;;;;;;;;;;;5052852;28;1384;-81
2020/12/11 05:45:53;;;;;;;;;;;;;;;;;;5036121;28;1324;-82
2020/12/11 05:48:22;;;;;;;;;;;;;;;;;;5037328;28;837;-82
2020/12/11 05:50:48;;;;;;;;;;;;;;;;;;5035738;28;1890;-82
2020/12/11 05:53:13;;;;;;;;;;;;;;;;;;5035981;28;1485;-82
2020/12/11 05:55:39;;;;;;;;;;;;;;;;;;5037182;28;822;-82
2020/12/11 05:58:06;;;;;;;;;;;;;;;;;;5035838;28;1264;-82
2020/12/11 06:00:32;;;;;;;;;;;;;;;;;;5035749;28;1750;-82
2020/12/11 06:02:57;;;;;;;;;;;;;;;;;;5037011;28;1341;-82
2020/12/11 06:05:23;;;;;;;;;;;;;;;;;;5037078;28;865;-82
2020/12/11 06:07:50;;;;;;;;;;;;;;;;;;5036069;28;1378;-82
2020/12/11 06:10:24;;;;;;;;;;;;;;;;;;5036854;28;1953;-82
2020/12/11 06:12:50;;;;;;;;;;;;;;;;;;5035722;28;1464;-82
2020/12/11 06:15:21;;;;;;;;;;;;;;;;;;5036907;28;946;-81
2020/12/11 06:17:50;;;;;;;;;;;;;;;;;;5035521;28;1407;-82
2020/12/11 06:20:16;;;;;;;;;;;;;;;;;;5035570;28;1355;-81
2020/12/11 06:22:44;;;;;;;;;;;;;;;;;;5036791;28;1330;-81
2020/12/11 06:25:27;;;;;;;;;;;;;;;;;;5036781;28;888;-82
2020/12/11 06:27:54;;;;;;;;;;;;;;;;;;5036605;28;833;-82
2020/12/11 06:30:32;;;;;;;;;;;;;;;;;;5035065;28;1931;-82
2020/12/11 06:32:58;;;;;;;;;;;;;;;;;;5035591;28;1389;-82
2020/12/11 06:35:24;;;;;;;;;;;;;;;;;;5036587;28;909;-81
2020/12/11 06:37:50;;;;;;;;;;;;;;;;;;5035172;28;1278;-81
2020/12/11 06:40:15;;;;;;;;;;;;;;;;;;5035013;28;1266;-81
2020/12/11 06:42:42;;;;;;;;;;;;;;;;;;5034599;28;1420;-82
2020/12/11 06:45:13;;;;;;;;;;;;;;;;;;5035154;28;1204;-81
2020/12/11 06:47:46;;;;;;;;;;;;;;;;;;5035366;28;1113;-82
2020/12/11 06:50:11;;;;;;;;;;;;;;;;;;5035015;28;1961;-82
2020/12/11 06:52:36;;;;;;;;;;;;;;;;;;5035114;28;1290;-82
2020/12/11 06:55:01;;;;;;;;;;;;;;;;;;5035961;28;976;-81
2020/12/11 06:57:31;;;;;;;;;;;;;;;;;;5036202;28;747;-82
2020/12/11 06:59:56;;;;;;;;;;;;;;;;;;5034479;28;1341;-82
2020/12/11 07:02:24;;;;;;;;;;;;;;;;;;5034691;28;1392;-82
2020/12/11 07:04:49;;;;;;;;;;;;;;;;;;5035927;28;881;-82
2020/12/11 07:07:15;;;;;;;;;;;;;;;;;;5034584;28;838;-82
2020/12/11 07:09:42;;;;;;;;;;;;;;;;;;5034442;28;1120;-82
2020/12/11 07:12:07;;;;;;;;;;;;;;;;;;5034466;28;1882;-82
2020/12/11 07:14:33;;;;;;;;;;;;;;;;;;5035757;28;789;-84
2020/12/11 07:16:58;;;;;;;;;;;;;;;;;;5035858;28;900;-84
2020/12/11 07:19:23;;;;;;;;;;;;;;;;;;5051025;28;1322;-83
2020/12/11 07:21:49;;;;;;;;;;;;;;;;;;5034096;28;1388;-83
2020/12/11 07:24:15;;;;;;;;;;;;;;;;;;5035618;28;841;-83
2020/12/11 07:26:40;;;;;;;;;;;;;;;;;;5035861;28;932;-82
2020/12/11 07:29:07;;;;;;;;;;;;;;;;;;5034184;28;1191;-82
2020/12/11 07:31:37;;;;;;;;;;;;;;;;;;5033896;28;1882;-82
2020/12/11 07:34:10;;;;;;;;;;;;;;;;;;5034101;28;1185;-82
2020/12/11 07:36:37;;;;;;;;;;;;;;;;;;5034060;28;1573;-82
2020/12/11 07:39:11;;;;;;;;;;;;;;;;;;5050765;28;860;-82
2020/12/11 07:41:36;;;;;;;;;;;;;;;;;;5033788;28;1521;-82
2020/12/11 07:44:01;;;;;;;;;;;;;;;;;;5033953;28;946;-82
2020/12/11 07:46:27;;;;;;;;;;;;;;;;;;5033945;28;1261;-82
2020/12/11 07:48:52;;;;;;;;;;;;;;;;;;5033641;28;1219;-82
2020/12/11 07:51:18;;;;;;;;;;;;;;;;;;5049540;28;1957;-82
2020/12/11 07:53:50;;;;;;;;;;;;;;;;;;5034276;28;880;-83
2020/12/11 07:56:15;;;;;;;;;;;;;;;;;;5032740;28;1164;-82
2020/12/11 07:58:41;;;;;;;;;;;;;;;;;;5033218;28;889;-83
2020/12/11 08:01:06;;;;;;;;;;;;;;;;;;5034258;28;1314;-82
2020/12/11 08:03:31;;;;;;;;;;;;;;;;;;5049836;28;1253;-83
2020/12/11 08:05:57;;;;;;;;;;;;;;;;;;5032962;28;1483;-82
2020/12/11 08:08:25;;;;;;;;;;;;;;;;;;5017661;28;1341;-83
2020/12/11 08:10:50;;;;;;;;;;;;;;;;;;5018492;28;1979;-82
2020/12/11 08:13:16;;;;;;;;;;;;;;;;;;5028146;28;1650;-82
2020/12/11 08:15:42;;;;;;;;;;;;;;;;;;5033325;28;1121;-82
2020/12/11 08:18:08;;;;;;;;;;;;;;;;;;5032965;28;1303;-82
2020/12/11 08:20:47;;;;;;;;;;;;;;;;;;5022037;28;1211;-82
2020/12/11 08:23:23;;;;;;;;;;;;;;;;;;5025574;28;1463;-82
2020/12/11 08:26:08;;;;;;;;;;;;;;;;;;5026678;28;1266;-83
2020/12/11 08:28:34;;;;;;;;;;;;;;;;;;5024356;28;1473;-82
2020/12/11 08:31:32;;;;;;;;;;;;;;;;;;5016198;28;1890;-82
2020/12/11 08:34:05;;;;;;;;;;;;;;;;;;4960797;28;1409;-83
2020/12/11 08:36:31;;;;;;;;;;;;;;;;;;5013598;28;885;-82
2020/12/11 08:39:03;;;;;;;;;;;;;;;;;;5013529;28;672;-83
2020/12/11 08:41:30;;;;;;;;;;;;;;;;;;5013269;28;1267;-82
2020/12/11 08:43:55;;;;;;;;;;;;;;;;;;5013515;28;826;-82
2020/12/11 08:46:35;;;;;;;;;;;;;;;;;;5013413;28;1301;-82
2020/12/11 08:52:01;;;;;;;;;;;;;;;;;;4954316;29;1891;-84
2020/12/11 09:55:51;;;;;;;;;;;;;;;;;;4995177;28;1075;-82
2020/12/11 09:58:16;;;;;;;;;;;;;;;;;;5032448;28;951;-82
2020/12/11 10:00:45;;;;;;;;;;;;;;;;;;5037151;28;862;-82
2020/12/11 10:03:14;;;;;;;;;;;;;;;;;;5035826;28;1433;-82
2020/12/11 10:05:40;;;;;;;;;;;;;;;;;;5036139;28;1353;-82
2020/12/11 10:08:06;;;;;;;;;;;;;;;;;;5037035;28;1285;-83
2020/12/11 10:10:31;;;;;;;;;;;;;;;;;;5038210;28;1961;-82
2020/12/11 10:12:57;;;;;;;;;;;;;;;;;;5035828;28;1413;-82
2020/12/11 10:15:23;;;;;;;;;;;;;;;;;;5036974;28;895;-82
2020/12/11 10:17:49;;;;;;;;;;;;;;;;;;5035883;28;1548;-83
2020/12/11 10:20:18;;;;;;;;;;;;;;;;;;5036897;28;809;-82
2020/12/11 10:22:47;;;;;;;;;;;;;;;;;;5037040;28;1266;-82
2020/12/11 10:25:13;;;;;;;;;;;;;;;;;;5035850;28;1204;-82
2020/12/11 10:27:38;;;;;;;;;;;;;;;;;;5036935;28;896;-82
2020/12/11 10:30:03;;;;;;;;;;;;;;;;;;5036013;28;1878;-82
2020/12/11 10:32:29;;;;;;;;;;;;;;;;;;5036154;28;1369;-82
2020/12/11 10:34:54;;;;;;;;;;;;;;;;;;5036391;28;1346;-82
2020/12/11 10:37:20;;;;;;;;;;;;;;;;;;5036783;28;873;-82
2020/12/11 10:39:45;;;;;;;;;;;;;;;;;;5036411;28;817;-82
2020/12/11 10:42:10;;;;;;;;;;;;;;;;;;5035811;28;1452;-82
2020/12/11 10:44:35;;;;;;;;;;;;;;;;;;5035787;28;1140;-82
2020/12/11 10:47:01;;;;;;;;;;;;;;;;;;5036719;28;854;-83
2020/12/11 10:49:26;;;;;;;;;;;;;;;;;;5036396;28;853;-83
2020/12/11 10:51:52;;;;;;;;;;;;;;;;;;5034658;28;1909;-83
2020/12/11 10:54:18;;;;;;;;;;;;;;;;;;5034865;28;1225;-83
2020/12/11 10:56:46;;;;;;;;;;;;;;;;;;5034800;28;933;-83
2020/12/11 10:59:12;;;;;;;;;;;;;;;;;;5036371;28;962;-83
2020/12/11 11:01:38;;;;;;;;;;;;;;;;;;5035811;28;1308;-84
2020/12/11 11:04:04;;;;;;;;;;;;;;;;;;5030285;28;1373;-84
2020/12/11 11:06:36;;;;;;;;;;;;;;;;;;5029356;28;1329;-83
2020/12/11 11:11:35;;;;;;;;;;;;;;;;;;5025686;28;1957;-82
2020/12/11 11:19:17;;;;;;;;;;;;;;;;;;5032815;28;1316;-82
2020/12/11 11:27:22;;;;;;;;;;;;;;;;;;4985363;28;1223;-82
2020/12/11 11:29:47;;;;;;;;;;;;;;;;;;5015462;28;841;-83
2020/12/11 11:32:13;;;;;;;;;;;;;;;;;;5014354;28;2020;-83
2020/12/11 11:34:38;;;;;;;;;;;;;;;;;;5016054;28;902;-83
2020/12/11 11:37:03;;;;;;;;;;;;;;;;;;5019763;28;1162;-83
2020/12/11 11:39:28;;;;;;;;;;;;;;;;;;5023655;28;1420;-83
2020/12/11 11:41:54;;;;;;;;;;;;;;;;;;5030239;28;1397;-83
2020/12/11 11:46:45;;;;;;;;;;;;;;;;;;5028087;28;1573;-82
2020/12/11 11:49:13;;;;;;;;;;;;;;;;;;5028137;28;1349;-82
2020/12/11 11:51:46;;;;;;;;;;;;;;;;;;5020637;28;1906;-82
2020/12/11 11:54:11;;;;;;;;;;;;;;;;;;5024771;28;1455;-82
2020/12/11 11:56:37;;;;;;;;;;;;;;;;;;5015557;28;1677;-83
2020/12/11 11:59:02;;;;;;;;;;;;;;;;;;5016993;28;1334;-82
2020/12/11 12:01:27;;;;;;;;;;;;;;;;;;5025927;28;1405;-82
2020/12/11 12:03:52;;;;;;;;;;;;;;;;;;5027293;28;1365;-82
2020/12/11 12:06:21;;;;;;;;;;;;;;;;;;5019621;28;1737;-82
2020/12/11 12:08:47;;;;;;;;;;;;;;;;;;5019368;28;1601;-82
2020/12/11 12:11:12;;;;;;;;;;;;;;;;;;5027560;28;1902;-82
2020/12/11 12:13:37;;;;;;;;;;;;;;;;;;5055498;28;1624;-83
2020/12/11 12:16:03;;;;;;;;;;;;;;;;;;5020240;28;1766;-82
2020/12/11 12:18:28;;;;;;;;;;;;;;;;;;5013776;28;893;-82
2020/12/11 12:20:59;;;;;;;;;;;;;;;;;;5013675;28;1240;-82
2020/12/11 12:27:25;;;;;;;;;;;;;;;;;;5014992;28;1421;-82
2020/12/11 12:29:08;;;;;;;;;;;;;;;;;;5015268;28;1088;-83
2020/12/11 12:31:40;;;;;;;;;;;;;;;;;;5013374;28;1903;-83
2020/12/11 12:45:02;;;;;;;;;;;;;;;;;;5015412;28;1008;-83
2020/12/11 12:47:27;;;;;;;;;;;;;;;;;;5018746;28;822;-83
2020/12/11 12:49:52;;;;;;;;;;;;;;;;;;5017337;28;1605;-83
2020/12/11 12:52:18;;;;;;;;;;;;;;;;;;5018909;28;1961;-82
2020/12/11 12:54:43;;;;;;;;;;;;;;;;;;5017374;28;1361;-82
2020/12/11 12:57:16;;;;;;;;;;;;;;;;;;5017556;28;893;-82
2020/12/11 13:05:09;;;;;;;;;;;;;;;;;;5018895;28;664;-82
2020/12/11 13:07:35;;;;;;;;;;;;;;;;;;5017151;28;1180;-83
2020/12/11 13:10:01;;;;;;;;;;;;;;;;;;5018112;28;1953;-82
2020/12/11 13:12:27;;;;;;;;;;;;;;;;;;5026224;28;1503;-82
2020/12/11 13:14:52;;;;;;;;;;;;;;;;;;5036779;28;929;-82
2020/12/11 13:17:18;;;;;;;;;;;;;;;;;;5037152;28;1295;-82
2020/12/11 13:19:43;;;;;;;;;;;;;;;;;;5036700;28;1525;-82
2020/12/11 13:27:24;;;;;;;;;;;;;;;;;;5037773;28;1429;-84
2020/12/11 13:29:49;;;;;;;;;;;;;;;;;;5035271;28;2078;-84
2020/12/11 13:32:15;;;;;;;;;;;;;;;;;;5036607;28;1957;-84
2020/12/11 13:34:40;;;;;;;;;;;;;;;;;;5037650;28;814;-85
2020/12/11 13:37:06;;;;;;;;;;;;;;;;;;5052995;28;1388;-84
2020/12/11 13:39:31;;;;;;;;;;;;;;;;;;5052971;28;1202;-84
2020/12/11 13:41:56;;;;;;;;;;;;;;;;;;5036013;28;1341;-84
2020/12/11 13:44:21;;;;;;;;;;;;;;;;;;5035141;28;1468;-84
2020/12/11 13:46:47;;;;;;;;;;;;;;;;;;5036356;28;1142;-84
2020/12/11 13:49:12;;;;;;;;;;;;;;;;;;5036161;28;978;-84
2020/12/11 13:51:37;;;;;;;;;;;;;;;;;;5036667;28;1894;-84
2020/12/11 13:54:03;;;;;;;;;;;;;;;;;;5036663;28;813;-84
2020/12/11 13:56:28;;;;;;;;;;;;;;;;;;5037318;28;947;-84
2020/12/11 13:58:53;;;;;;;;;;;;;;;;;;5053043;28;1513;-84
2020/12/11 14:01:18;;;;;;;;;;;;;;;;;;5037116;28;1409;-84
2020/12/11 14:03:44;;;;;;;;;;;;;;;;;;5034492;28;1689;-84
2020/12/11 14:06:09;;;;;;;;;;;;;;;;;;5037092;28;853;-84
2020/12/11 14:08:34;;;;;;;;;;;;;;;;;;5037040;28;890;-84
2020/12/11 14:11:00;;;;;;;;;;;;;;;;;;5036795;28;1917;-84
2020/12/11 14:13:25;;;;;;;;;;;;;;;;;;5035535;28;1426;-84
2020/12/11 14:15:50;;;;;;;;;;;;;;;;;;5035160;28;1361;-84
2020/12/11 14:18:40;;;;;;;;;;;;;;;;;;5036519;28;845;-85
2020/12/11 14:21:22;;;;;;;;;;;;;;;;;;5035334;28;1263;-85
2020/12/11 14:23:48;;;;;;;;;;;;;;;;;;5036338;28;861;-84
2020/12/11 14:26:13;;;;;;;;;;;;;;;;;;5036052;28;838;-84
2020/12/11 14:28:38;;;;;;;;;;;;;;;;;;5034836;28;1301;-84
2020/12/11 14:31:04;;;;;;;;;;;;;;;;;;5034544;28;1935;-84
2020/12/11 14:33:29;;;;;;;;;;;;;;;;;;5035001;28;1499;-84
2020/12/11 14:35:54;;;;;;;;;;;;;;;;;;5034998;28;1244;-85
2020/12/11 14:40:54;;;;;;;;;;;;;;;;;;5036008;28;956;-85
2020/12/11 14:43:19;;;;;;;;;;;;;;;;;;5036555;28;1314;-84
2020/12/11 14:45:45;;;;;;;;;;;;;;;;;;5035776;28;806;-84
2020/12/11 14:48:10;;;;;;;;;;;;;;;;;;5035836;28;964;-84
2020/12/11 14:50:35;;;;;;;;;;;;;;;;;;5035543;28;1882;-84
2020/12/11 14:53:00;;;;;;;;;;;;;;;;;;5034264;28;1357;-84
2020/12/11 14:55:26;;;;;;;;;;;;;;;;;;5034627;28;1291;-84
2020/12/11 14:57:51;;;;;;;;;;;;;;;;;;5035589;28;937;-84
2020/12/11 15:00:16;;;;;;;;;;;;;;;;;;5035592;28;858;-84
2020/12/11 15:02:42;;;;;;;;;;;;;;;;;;5035454;28;1372;-84
2020/12/11 15:05:07;;;;;;;;;;;;;;;;;;5035220;28;984;-84
2020/12/11 15:07:32;;;;;;;;;;;;;;;;;;5034365;28;1141;-85
2020/12/11 15:09:58;;;;;;;;;;;;;;;;;;5035276;28;814;-84
2020/12/11 15:12:23;;;;;;;;;;;;;;;;;;5033906;28;1955;-84
2020/12/11 15:14:48;;;;;;;;;;;;;;;;;;5035716;28;886;-85
2020/12/11 15:17:14;;;;;;;;;;;;;;;;;;5033981;28;1318;-85
2020/12/11 15:19:39;;;;;;;;;;;;;;;;;;5035062;28;810;-85
2020/12/11 15:22:04;;;;;;;;;;;;;;;;;;5035116;28;1345;-85
2020/12/11 15:24:30;;;;;;;;;;;;;;;;;;5034173;28;858;-84
2020/12/11 15:26:59;;;;;;;;;;;;;;;;;;5035322;28;948;-85
2020/12/11 15:29:25;;;;;;;;;;;;;;;;;;5035329;28;908;-85
2020/12/11 15:31:50;;;;;;;;;;;;;;;;;;5034678;28;1891;-85
2020/12/11 15:34:15;;;;;;;;;;;;;;;;;;5033694;28;1197;-85
2020/12/11 15:36:40;;;;;;;;;;;;;;;;;;5033617;28;865;-84
2020/12/11 15:39:06;;;;;;;;;;;;;;;;;;5033829;28;1216;-85
2020/12/11 15:41:31;;;;;;;;;;;;;;;;;;5034639;28;1322;-85
2020/12/11 15:43:57;;;;;;;;;;;;;;;;;;5034436;28;834;-84
2020/12/11 15:46:23;;;;;;;;;;;;;;;;;;5034860;28;876;-85
2020/12/11 15:48:49;;;;;;;;;;;;;;;;;;5033098;28;1191;-85
2020/12/11 15:51:14;;;;;;;;;;;;;;;;;;5033056;28;1953;-84
2020/12/11 15:53:39;;;;;;;;;;;;;;;;;;5032888;28;1451;-85
2020/12/11 15:56:08;;;;;;;;;;;;;;;;;;5034498;28;750;-85
2020/12/11 15:58:33;;;;;;;;;;;;;;;;;;5033446;28;1370;-84
2020/12/11 16:00:58;;;;;;;;;;;;;;;;;;5022965;28;1251;-84
2020/12/11 16:03:24;;;;;;;;;;;;;;;;;;5014646;28;1346;-85
2020/12/11 16:05:49;;;;;;;;;;;;;;;;;;5013374;28;1346;-84
2020/12/11 16:08:15;;;;;;;;;;;;;;;;;;5013134;28;1436;-84
2020/12/11 16:10:40;;;;;;;;;;;;;;;;;;5014281;28;1887;-85
2020/12/11 16:13:05;;;;;;;;;;;;;;;;;;5013105;28;1449;-84
2020/12/11 16:15:31;;;;;;;;;;;;;;;;;;5013824;28;806;-84
2020/12/11 16:17:56;;;;;;;;;;;;;;;;;;5013164;28;1259;-84
2020/12/11 16:20:21;;;;;;;;;;;;;;;;;;5012885;28;1345;-84
2020/12/11 16:22:46;;;;;;;;;;;;;;;;;;5029493;28;1468;-85
2020/12/11 16:25:12;;;;;;;;;;;;;;;;;;5032750;28;1335;-84
2020/12/11 16:27:37;;;;;;;;;;;;;;;;;;5034128;28;818;-84
2020/12/11 16:30:03;;;;;;;;;;;;;;;;;;5033922;28;889;-85
2020/12/11 16:32:30;;;;;;;;;;;;;;;;;;5032941;28;1898;-85
2020/12/11 16:34:56;;;;;;;;;;;;;;;;;;5034152;28;889;-85
2020/12/11 16:37:21;;;;;;;;;;;;;;;;;;5033037;28;1170;-84
2020/12/11 16:39:46;;;;;;;;;;;;;;;;;;5032987;28;1150;-85
2020/12/11 16:42:11;;;;;;;;;;;;;;;;;;5032765;28;1393;-84
2020/12/11 16:47:06;;;;;;;;;;;;;;;;;;5034213;28;727;-84
2020/12/11 16:49:37;;;;;;;;;;;;;;;;;;5033902;28;905;-84
2020/12/11 16:52:03;;;;;;;;;;;;;;;;;;5032813;28;1888;-84
2020/12/11 16:54:28;;;;;;;;;;;;;;;;;;5034014;28;771;-84
2020/12/11 16:56:53;;;;;;;;;;;;;;;;;;5032369;28;1166;-83
2020/12/11 16:59:32;;;;;;;;;;;;;;;;;;5032497;28;1297;-83
2020/12/11 17:01:58;;;;;;;;;;;;;;;;;;5032365;28;1337;-84
2020/12/11 17:07:32;;;;;;;;;;;;;;;;;;5002888;28;1331;-84
2020/12/11 17:09:54;;;;;;;;;;;;;;;;;;5033245;28;1830;-84
2020/12/11 17:12:20;;;;;;;;;;;;;;;;;;5032484;28;1979;-84
2020/12/11 17:14:45;;;;;;;;;;;;;;;;;;5032648;28;1462;-85
2020/12/11 17:17:12;;;;;;;;;;;;;;;;;;5033734;28;940;-85
2020/12/11 17:19:37;;;;;;;;;;;;;;;;;;5032225;28;1329;-84
2020/12/11 17:22:04;;;;;;;;;;;;;;;;;;5032186;28;1360;-85
2020/12/11 17:24:29;;;;;;;;;;;;;;;;;;5032388;28;1436;-85
2020/12/11 17:26:55;;;;;;;;;;;;;;;;;;5034426;28;853;-85
2020/12/11 17:29:20;;;;;;;;;;;;;;;;;;5035665;28;1338;-84
2020/12/11 17:32:04;;;;;;;;;;;;;;;;;;5037001;28;1894;-85
2020/12/11 17:36:58;;;;;;;;;;;;;;;;;;5037348;28;782;-84
2020/12/11 17:39:24;;;;;;;;;;;;;;;;;;5035631;28;1300;-84
2020/12/11 17:41:52;;;;;;;;;;;;;;;;;;5035552;28;1337;-85
2020/12/11 17:44:21;;;;;;;;;;;;;;;;;;5035658;28;1424;-84
2020/12/11 17:46:47;;;;;;;;;;;;;;;;;;5035698;28;1360;-84
2020/12/11 17:49:13;;;;;;;;;;;;;;;;;;5035664;28;1263;-84
2020/12/11 17:51:38;;;;;;;;;;;;;;;;;;5036546;28;1956;-85
2020/12/11 17:54:04;;;;;;;;;;;;;;;;;;5036063;28;910;-84
2020/12/11 17:56:29;;;;;;;;;;;;;;;;;;5035478;28;1327;-86
2020/12/11 17:58:55;;;;;;;;;;;;;;;;;;5035331;28;1881;-85
2020/12/11 18:01:20;;;;;;;;;;;;;;;;;;5035216;28;1357;-85
2020/12/11 18:03:45;;;;;;;;;;;;;;;;;;5035384;28;1172;-86
2020/12/11 18:06:10;;;;;;;;;;;;;;;;;;5036882;28;822;-86
2020/12/11 18:08:36;;;;;;;;;;;;;;;;;;5036858;28;786;-85
2020/12/11 18:11:01;;;;;;;;;;;;;;;;;;5037388;28;1898;-86
2020/12/11 18:13:26;;;;;;;;;;;;;;;;;;5036261;28;1472;-85
2020/12/11 18:15:52;;;;;;;;;;;;;;;;;;5035776;28;873;-85
2020/12/11 18:18:17;;;;;;;;;;;;;;;;;;5037252;28;1414;-85
2020/12/11 18:20:42;;;;;;;;;;;;;;;;;;5041455;28;782;-85
2020/12/11 18:23:07;;;;;;;;;;;;;;;;;;5035823;28;1444;-85
2020/12/11 18:25:36;;;;;;;;;;;;;;;;;;5036697;28;1023;-85
2020/12/11 18:28:01;;;;;;;;;;;;;;;;;;5035267;28;1418;-84
2020/12/11 18:30:27;;;;;;;;;;;;;;;;;;5037384;28;1959;-84
2020/12/11 18:32:52;;;;;;;;;;;;;;;;;;5035141;28;1345;-85
2020/12/11 18:35:17;;;;;;;;;;;;;;;;;;5036262;28;838;-85
2020/12/11 18:37:42;;;;;;;;;;;;;;;;;;5035238;28;1244;-84
2020/12/11 18:40:08;;;;;;;;;;;;;;;;;;5035362;28;913;-85
2020/12/11 18:42:33;;;;;;;;;;;;;;;;;;5034624;28;1345;-85
2020/12/11 18:44:58;;;;;;;;;;;;;;;;;;5034670;28;1235;-84
2020/12/11 18:47:23;;;;;;;;;;;;;;;;;;5034784;28;1313;-85
2020/12/11 18:49:49;;;;;;;;;;;;;;;;;;5027059;28;1361;-85
2020/12/11 18:52:15;;;;;;;;;;;;;;;;;;5015884;28;1890;-84
2020/12/11 18:54:40;;;;;;;;;;;;;;;;;;5014653;28;854;-84
2020/12/11 18:57:07;;;;;;;;;;;;;;;;;;5014555;28;1428;-84
2020/12/11 18:59:33;;;;;;;;;;;;;;;;;;5014431;28;1509;-85